Terminal Aerodrome Forecast
Issued by NWS

Home | Current Version | Previous Version | Text Only | Print | Product List | Glossary On
Versions: 1 2 3 4 5 6 7 8 9 10 11 12 13 14 15 16 17 18
000
FTUS43 KGRB 311700 RRA
TAFATW
TAF
KATW 311741Z 3118/0118 24005KT P6SM VCSH SCT035 SCT060
     FM312000 28005KT P6SM VCTS BKN040CB
     FM010200 VRB03KT P6SM SCT080
     FM010900 VRB03KT 4SM BR SCT250
     FM011200 22004KT P6SM SCT030 BKN080=

USA.gov is the U.S. government's official web portal to all federal, state and local government web resources and services.